createdAt,value
2019-05-19T00:01:54.079Z,5.77
2019-05-19T00:04:58.916Z,5.53
2019-05-19T00:08:03.806Z,5.90
2019-05-19T00:11:08.724Z,5.43
2019-05-19T00:14:13.480Z,5.43
2019-05-19T00:17:18.231Z,5.40
2019-05-19T00:20:22.988Z,5.03
2019-05-19T00:23:27.791Z,6.37
2019-05-19T00:26:32.545Z,5.23
2019-05-19T00:29:37.634Z,5.40
2019-05-19T00:32:43.598Z,5.50
2019-05-19T00:35:48.346Z,5.17
2019-05-19T00:38:53.100Z,4.57
2019-05-19T00:41:57.929Z,5.43
2019-05-19T00:45:03.003Z,4.93
2019-05-19T00:48:08.364Z,6.60
2019-05-19T00:51:13.790Z,5.40
2019-05-19T00:54:18.536Z,6.77
2019-05-19T00:57:24.409Z,4.73
2019-05-19T01:00:29.258Z,5.50
2019-05-19T01:03:34.292Z,5.83
2019-05-19T01:06:39.355Z,5.97
2019-05-19T01:09:45.234Z,8.23
2019-05-19T01:12:50.016Z,6.20
2019-05-19T01:15:54.779Z,6.47
2019-05-19T01:18:59.508Z,6.27
2019-05-19T01:22:04.635Z,8.10
2019-05-19T01:25:09.965Z,5.87
2019-05-19T01:28:14.808Z,4.97
2019-05-19T01:31:19.866Z,8.53
2019-05-19T01:34:24.678Z,6.97
2019-05-19T01:37:30.427Z,7.40
2019-05-19T01:40:35.174Z,5.07
2019-05-19T01:43:40.257Z,5.67
2019-05-19T01:46:45.016Z,5.37
2019-05-19T01:49:50.083Z,6.90
2019-05-19T01:52:55.484Z,6.23
2019-05-19T01:56:00.246Z,6.27
2019-05-19T01:59:05.476Z,6.27
2019-05-19T02:02:10.589Z,7.03
2019-05-19T02:05:15.852Z,6.07
2019-05-19T02:08:20.779Z,7.93
2019-05-19T02:11:26.103Z,7.17
2019-05-19T02:14:31.107Z,10.60
2019-05-19T02:17:36.622Z,6.57
2019-05-19T02:20:41.371Z,7.97
2019-05-19T02:23:46.105Z,6.93
2019-05-19T02:26:50.840Z,6.10
2019-05-19T02:29:55.913Z,6.40
2019-05-19T02:33:00.993Z,6.93
2019-05-19T02:36:06.284Z,6.90
2019-05-19T02:39:11.370Z,7.20
2019-05-19T02:42:18.721Z,8.43
2019-05-19T02:45:26.636Z,8.63
2019-05-19T02:48:33.467Z,7.60
2019-05-19T02:51:40.841Z,7.50
2019-05-19T02:54:46.602Z,6.70
2019-05-19T02:57:51.695Z,8.47
2019-05-19T03:00:56.441Z,7.60
2019-05-19T03:04:02.192Z,7.57
2019-05-19T03:07:07.498Z,8.43
2019-05-19T03:10:12.719Z,7.87
2019-05-19T03:13:17.466Z,7.30
2019-05-19T03:16:22.209Z,7.73
2019-05-19T03:19:26.967Z,7.90
2019-05-19T03:22:31.767Z,7.77
2019-05-19T03:25:36.653Z,7.23
2019-05-19T03:28:41.939Z,7.53
2019-05-19T03:32:03.064Z,7.50
2019-05-19T03:35:08.040Z,5.87
2019-05-19T03:38:12.988Z,7.40
2019-05-19T03:41:17.741Z,7.43
2019-05-19T03:44:25.971Z,8.93
2019-05-19T03:47:30.717Z,8.43
2019-05-19T03:50:35.479Z,7.97
2019-05-19T03:53:40.246Z,9.23
2019-05-19T03:56:45.012Z,8.27
2019-05-19T03:59:49.754Z,8.13
2019-05-19T04:02:54.521Z,8.17
2019-05-19T04:05:59.882Z,7.30
2019-05-19T04:09:06.129Z,8.60
2019-05-19T04:12:11.204Z,9.03
2019-05-19T04:15:16.628Z,8.90
2019-05-19T04:18:21.379Z,11.60
2019-05-19T04:21:26.126Z,9.33
2019-05-19T04:24:31.270Z,12.20
2019-05-19T04:27:36.419Z,10.17
2019-05-19T04:30:42.070Z,10.43
2019-05-19T04:33:47.138Z,11.23
2019-05-19T04:36:52.040Z,10.73
2019-05-19T04:39:57.150Z,11.23
2019-05-19T04:43:01.976Z,12.70
2019-05-19T04:46:06.713Z,13.87
2019-05-19T04:49:11.876Z,12.90
2019-05-19T04:52:16.732Z,12.43
2019-05-19T04:55:21.817Z,12.73
2019-05-19T04:58:26.901Z,13.43
2019-05-19T05:01:32.077Z,13.10
2019-05-19T05:04:36.854Z,13.50
2019-05-19T05:07:42.136Z,13.67
2019-05-19T05:10:47.884Z,13.47
2019-05-19T05:13:53.006Z,13.90
2019-05-19T05:16:57.955Z,13.33
2019-05-19T05:20:03.221Z,13.87
2019-05-19T05:23:08.013Z,12.93
2019-05-19T05:26:13.761Z,12.50
2019-05-19T05:29:18.879Z,12.90
2019-05-19T05:32:23.757Z,13.23
2019-05-19T05:35:28.834Z,13.70
2019-05-19T05:38:33.955Z,15.77
2019-05-19T05:41:38.793Z,14.17
2019-05-19T05:44:43.606Z,16.63
2019-05-19T05:47:48.407Z,14.77
2019-05-19T05:50:53.635Z,14.23
2019-05-19T05:53:58.403Z,14.80
2019-05-19T05:57:03.284Z,13.80
2019-05-19T06:00:08.335Z,14.70
2019-05-19T06:03:13.114Z,15.17
2019-05-19T06:06:17.975Z,15.20
2019-05-19T06:09:23.043Z,13.90
2019-05-19T06:12:29.321Z,13.87
2019-05-19T06:15:34.186Z,12.70
2019-05-19T06:18:38.992Z,15.20
2019-05-19T06:21:43.971Z,17.00
2019-05-19T06:24:48.792Z,16.43
2019-05-19T06:27:53.870Z,17.23
2019-05-19T06:31:01.868Z,14.57
2019-05-19T06:34:07.390Z,15.47
2019-05-19T06:37:12.276Z,15.67
2019-05-19T06:40:17.486Z,14.13
2019-05-19T06:43:23.150Z,13.27
2019-05-19T06:46:27.936Z,14.47
2019-05-19T06:49:32.987Z,14.37
2019-05-19T06:52:37.767Z,14.50
2019-05-19T06:55:43.137Z,13.90
2019-05-19T06:58:47.943Z,14.77
2019-05-19T07:01:52.911Z,12.77
2019-05-19T07:04:58.271Z,12.70
2019-05-19T07:08:03.711Z,11.50
2019-05-19T07:11:08.544Z,9.87
2019-05-19T07:14:13.666Z,8.60
2019-05-19T07:17:18.616Z,7.43
2019-05-19T07:20:23.479Z,9.00
2019-05-19T07:23:29.063Z,7.10
2019-05-19T07:26:34.319Z,7.90
2019-05-19T07:29:40.232Z,7.77
2019-05-19T07:32:46.550Z,7.97
2019-05-19T07:35:51.394Z,6.73
2019-05-19T07:38:56.552Z,6.90
2019-05-19T07:42:01.720Z,5.93
2019-05-19T07:45:08.020Z,5.40
2019-05-19T07:48:12.788Z,5.50
2019-05-19T07:51:17.995Z,4.93
2019-05-19T07:54:23.141Z,5.10
2019-05-19T07:57:28.445Z,5.80
2019-05-19T08:00:33.593Z,6.57
2019-05-19T08:03:38.349Z,5.00
2019-05-19T08:06:43.117Z,4.93
2019-05-19T08:09:50.190Z,8.03
2019-05-19T08:12:55.696Z,6.60
2019-05-19T08:16:00.795Z,6.43
2019-05-19T08:19:06.031Z,7.30
2019-05-19T08:22:11.315Z,6.50
2019-05-19T08:25:16.173Z,6.97
2019-05-19T08:28:22.121Z,6.23
2019-05-19T08:31:27.777Z,7.13
2019-05-19T08:34:32.542Z,6.70
2019-05-19T08:37:37.403Z,6.90
2019-05-19T08:40:42.531Z,6.67
2019-05-19T08:43:47.976Z,6.13
2019-05-19T08:46:53.788Z,5.57
2019-05-19T08:49:58.921Z,5.43
2019-05-19T08:53:03.774Z,6.50
2019-05-19T08:56:08.840Z,4.50
2019-05-19T08:59:13.653Z,3.87
2019-05-19T09:02:18.513Z,5.20
2019-05-19T09:05:24.047Z,4.40
2019-05-19T09:08:29.321Z,4.07
2019-05-19T09:11:34.172Z,4.30
2019-05-19T09:14:39.024Z,3.63
2019-05-19T09:17:43.752Z,4.20
2019-05-19T09:20:48.512Z,3.80
2019-05-19T09:23:53.350Z,3.50
2019-05-19T09:26:58.156Z,3.93
2019-05-19T09:30:03.028Z,3.80
2019-05-19T09:33:07.950Z,3.97
2019-05-19T09:36:13.486Z,3.50
2019-05-19T09:39:18.517Z,4.10
2019-05-19T09:42:24.797Z,4.30
2019-05-19T09:45:29.758Z,3.47
2019-05-19T09:48:34.566Z,3.53
2019-05-19T09:51:39.529Z,3.97
2019-05-19T09:54:45.918Z,3.70
2019-05-19T09:57:51.131Z,4.37
2019-05-19T10:00:56.277Z,4.30
2019-05-19T10:04:01.339Z,4.07
2019-05-19T10:07:07.220Z,4.57
2019-05-19T10:10:16.069Z,5.20
2019-05-19T10:13:20.880Z,5.40
2019-05-19T10:16:26.009Z,6.00
2019-05-19T10:19:30.928Z,7.63
2019-05-19T10:22:35.720Z,5.10
2019-05-19T10:25:40.644Z,5.00
2019-05-19T10:28:45.567Z,5.13
2019-05-19T10:31:54.293Z,6.33
2019-05-19T10:34:57.085Z,4.80
2019-05-19T10:38:01.940Z,6.07
2019-05-19T10:41:06.889Z,6.13
2019-05-19T10:44:11.752Z,6.47
2019-05-19T10:47:16.997Z,6.30
2019-05-19T10:50:21.802Z,6.80
2019-05-19T10:53:26.749Z,6.60
2019-05-19T10:56:31.970Z,7.17
2019-05-19T10:59:36.862Z,6.07
2019-05-19T11:02:41.650Z,7.30
2019-05-19T11:05:46.712Z,7.40
2019-05-19T11:08:51.512Z,6.40
2019-05-19T11:11:56.675Z,6.70
2019-05-19T11:15:01.811Z,6.17
2019-05-19T11:18:08.094Z,7.33
2019-05-19T11:21:13.242Z,8.10
2019-05-19T11:24:18.269Z,7.27
2019-05-19T11:27:23.314Z,8.63
2019-05-19T11:30:28.118Z,8.03
2019-05-19T11:33:32.931Z,7.70
2019-05-19T11:36:38.078Z,11.73
2019-05-19T11:39:42.904Z,7.20
2019-05-19T11:42:48.187Z,7.23
2019-05-19T11:45:53.288Z,6.73
2019-05-19T11:48:58.653Z,6.50
2019-05-19T11:52:03.494Z,6.93
2019-05-19T11:55:08.838Z,7.40
2019-05-19T11:58:14.201Z,7.37
2019-05-19T12:01:19.315Z,6.00
2019-05-19T12:04:24.501Z,13.20
2019-05-19T12:07:29.789Z,6.13
2019-05-19T12:10:34.722Z,5.60
2019-05-19T12:13:39.449Z,5.40
2019-05-19T12:16:44.404Z,6.27
2019-05-19T12:19:49.486Z,4.63
2019-05-19T12:22:54.321Z,5.60
2019-05-19T12:25:59.331Z,5.57
2019-05-19T12:29:04.194Z,5.23
2019-05-19T12:32:08.972Z,5.47
2019-05-19T12:35:14.140Z,5.63
2019-05-19T12:38:19.277Z,5.00
2019-05-19T12:41:24.365Z,5.33
2019-05-19T12:44:29.108Z,5.77
2019-05-19T12:47:34.123Z,5.60
2019-05-19T12:50:38.939Z,6.03
2019-05-19T12:53:43.923Z,6.70
2019-05-19T12:56:48.737Z,5.37
2019-05-19T12:59:53.576Z,5.83
2019-05-19T13:02:59.324Z,5.87
2019-05-19T13:06:04.231Z,5.27
2019-05-19T13:09:09.588Z,5.50
2019-05-19T13:12:14.433Z,5.10
2019-05-19T13:15:19.620Z,5.00
2019-05-19T13:18:24.681Z,4.97
2019-05-19T13:21:29.806Z,4.80
2019-05-19T13:24:34.948Z,5.20
2019-05-19T13:27:41.036Z,5.27
2019-05-19T13:30:45.783Z,5.00
2019-05-19T13:33:51.843Z,5.00
2019-05-19T13:36:56.918Z,4.90
2019-05-19T13:40:02.287Z,5.63
2019-05-19T13:43:07.436Z,5.70
2019-05-19T13:46:12.331Z,5.10
2019-05-19T13:49:17.210Z,4.47
2019-05-19T13:52:22.046Z,4.77
2019-05-19T13:55:26.900Z,4.70
2019-05-19T13:58:31.979Z,4.60
2019-05-19T14:01:37.222Z,5.27
2019-05-19T14:04:42.392Z,4.20
2019-05-19T14:07:47.239Z,6.07
2019-05-19T14:10:52.274Z,4.23
2019-05-19T14:13:57.134Z,4.87
2019-05-19T14:17:01.962Z,5.60
2019-05-19T14:20:08.108Z,4.07
2019-05-19T14:23:13.146Z,4.70
2019-05-19T14:26:18.591Z,4.40
2019-05-19T14:29:23.425Z,4.00
2019-05-19T14:32:28.644Z,4.30
2019-05-19T14:35:33.902Z,4.00
2019-05-19T14:38:40.747Z,4.10
2019-05-19T14:41:50.265Z,3.97
2019-05-19T14:44:55.802Z,4.20
2019-05-19T14:48:00.637Z,4.03
2019-05-19T14:51:05.394Z,4.30
2019-05-19T14:54:10.211Z,4.37
2019-05-19T14:57:14.965Z,3.63
2019-05-19T15:00:20.728Z,5.57
2019-05-19T15:03:25.813Z,4.23
2019-05-19T15:06:30.597Z,4.10
2019-05-19T15:09:35.655Z,4.07
2019-05-19T15:12:40.411Z,4.00
2019-05-19T15:15:45.730Z,4.17
2019-05-19T15:18:50.699Z,4.37
2019-05-19T15:21:56.722Z,4.37
2019-05-19T15:25:01.927Z,6.03
2019-05-19T15:28:06.862Z,5.10
2019-05-19T15:31:11.679Z,4.40
2019-05-19T15:34:16.425Z,4.40
2019-05-19T15:37:22.470Z,4.20
2019-05-19T15:40:27.433Z,4.40
2019-05-19T15:43:32.496Z,3.37
2019-05-19T15:46:37.584Z,4.50
2019-05-19T15:49:42.426Z,3.87
2019-05-19T15:52:47.338Z,3.50
2019-05-19T15:55:52.098Z,3.73
2019-05-19T15:58:57.398Z,3.70
2019-05-19T16:02:02.508Z,4.00
2019-05-19T16:05:08.231Z,4.20
2019-05-19T16:08:12.953Z,3.40
2019-05-19T16:11:17.874Z,3.60
2019-05-19T16:14:22.683Z,3.50
2019-05-19T16:17:27.397Z,3.20
2019-05-19T16:20:32.356Z,3.80
2019-05-19T16:23:37.116Z,4.17
2019-05-19T16:26:41.860Z,3.40
2019-05-19T16:29:46.562Z,2.77
2019-05-19T16:32:51.542Z,3.23
2019-05-19T16:35:56.484Z,2.67
2019-05-19T16:39:01.225Z,3.70
2019-05-19T16:42:07.631Z,2.67
2019-05-19T16:45:12.983Z,2.77
2019-05-19T16:48:18.024Z,2.80
2019-05-19T16:51:23.343Z,2.70
2019-05-19T16:54:32.885Z,3.23
2019-05-19T16:57:37.715Z,2.77
2019-05-19T17:00:42.429Z,2.60
2019-05-19T17:03:47.391Z,4.33
2019-05-19T17:06:52.379Z,3.00
2019-05-19T17:09:57.089Z,2.50
2019-05-19T17:13:02.231Z,2.60
2019-05-19T17:16:07.165Z,2.40
2019-05-19T17:19:11.901Z,3.47
2019-05-19T17:22:16.603Z,2.30
2019-05-19T17:25:21.556Z,2.83
2019-05-19T17:28:26.272Z,2.60
2019-05-19T17:31:31.133Z,2.50
2019-05-19T17:34:36.185Z,2.47
2019-05-19T17:37:41.536Z,2.70
2019-05-19T17:40:46.329Z,2.60
2019-05-19T17:43:51.166Z,2.60
2019-05-19T17:46:56.155Z,2.90
2019-05-19T17:50:00.875Z,2.67
2019-05-19T17:53:06.334Z,4.77
2019-05-19T17:56:11.357Z,2.80
2019-05-19T17:59:17.020Z,3.10
2019-05-19T18:02:21.775Z,2.90
2019-05-19T18:05:27.585Z,3.10
2019-05-19T18:08:32.387Z,3.23
2019-05-19T18:11:37.152Z,2.63
2019-05-19T18:14:42.033Z,4.00
2019-05-19T18:17:47.056Z,2.60
2019-05-19T18:20:53.364Z,2.87
2019-05-19T18:27:05.612Z,2.60
2019-05-19T18:30:10.832Z,2.50
2019-05-19T18:33:15.555Z,2.63
2019-05-19T18:36:20.341Z,2.63
2019-05-19T18:39:25.318Z,3.70
2019-05-19T18:42:30.115Z,6.37
2019-05-19T18:45:34.932Z,3.10
2019-05-19T18:48:39.742Z,2.70
2019-05-19T18:51:44.906Z,2.80
2019-05-19T18:54:50.597Z,2.60
2019-05-19T18:57:55.366Z,3.07
2019-05-19T19:01:00.294Z,2.63
2019-05-19T19:04:06.178Z,2.90
2019-05-19T19:07:10.963Z,3.70
2019-05-19T19:10:15.738Z,3.37
2019-05-19T19:13:21.725Z,3.00
2019-05-19T19:16:26.795Z,4.70
2019-05-19T19:19:31.775Z,4.60
2019-05-19T19:22:36.620Z,4.10
2019-05-19T19:25:41.785Z,3.67
2019-05-19T19:28:46.861Z,4.93
2019-05-19T19:31:51.661Z,3.43
2019-05-19T19:34:56.739Z,3.53
2019-05-19T19:38:02.095Z,5.33
2019-05-19T19:41:07.084Z,4.20
2019-05-19T19:44:12.020Z,3.77
2019-05-19T19:47:16.816Z,4.77
2019-05-19T19:50:21.741Z,4.43
2019-05-19T19:53:26.575Z,4.30
2019-05-19T19:56:31.492Z,4.07
2019-05-19T19:59:37.190Z,4.30
2019-05-19T20:02:41.981Z,4.13
2019-05-19T20:05:47.131Z,4.50
2019-05-19T20:08:52.157Z,6.67
2019-05-19T20:11:56.990Z,5.63
2019-05-19T20:15:01.830Z,6.47
2019-05-19T20:18:06.632Z,4.60
2019-05-19T20:21:11.560Z,4.57
2019-05-19T20:24:16.530Z,4.30
2019-05-19T20:27:21.526Z,4.40
2019-05-19T20:30:34.992Z,4.67
2019-05-19T20:33:33.415Z,3.80
2019-05-19T20:36:38.490Z,5.17
2019-05-19T20:39:43.385Z,4.47
2019-05-19T20:42:48.188Z,4.37
2019-05-19T20:45:53.045Z,4.40
2019-05-19T20:48:57.891Z,4.53
2019-05-19T20:52:02.676Z,4.70
2019-05-19T20:55:08.626Z,4.63
2019-05-19T20:58:13.339Z,4.87
2019-05-19T21:01:18.367Z,4.60
2019-05-19T21:04:23.082Z,4.57
2019-05-19T21:07:28.159Z,4.80
2019-05-19T21:10:33.140Z,4.43
2019-05-19T21:13:37.984Z,4.53
2019-05-19T21:16:42.749Z,5.47
2019-05-19T21:19:48.709Z,5.40
2019-05-19T21:22:53.469Z,5.80
2019-05-19T21:25:58.499Z,5.20
2019-05-19T21:29:03.326Z,4.60
2019-05-19T21:32:08.040Z,5.37
2019-05-19T21:35:13.123Z,6.33
2019-05-19T21:38:18.156Z,5.00
2019-05-19T21:41:23.158Z,5.47
2019-05-19T21:44:27.951Z,5.83
2019-05-19T21:47:32.750Z,5.43
2019-05-19T21:50:37.872Z,5.93
2019-05-19T21:53:42.740Z,5.43
2019-05-19T21:56:47.846Z,7.30
2019-05-19T21:59:52.907Z,7.00
2019-05-19T22:02:57.800Z,6.37
2019-05-19T22:06:02.584Z,8.60
2019-05-19T22:09:07.478Z,6.93
2019-05-19T22:12:12.548Z,6.40
2019-05-19T22:15:17.361Z,5.50
2019-05-19T22:18:22.206Z,7.83
2019-05-19T22:21:30.157Z,5.30
2019-05-19T22:24:34.964Z,6.13
2019-05-19T22:27:39.676Z,7.17
2019-05-19T22:30:44.530Z,6.90
2019-05-19T22:33:49.616Z,5.57
2019-05-19T22:36:54.698Z,9.13
2019-05-19T22:39:59.717Z,7.20
2019-05-19T22:43:04.550Z,6.33
2019-05-19T22:46:09.686Z,7.13
2019-05-19T22:49:15.045Z,6.00
2019-05-19T22:52:20.167Z,6.33
2019-05-19T22:55:24.947Z,7.03
2019-05-19T22:58:29.678Z,5.87
2019-05-19T23:01:34.726Z,6.63
2019-05-19T23:04:39.457Z,5.60
2019-05-19T23:07:44.236Z,5.30
2019-05-19T23:10:48.975Z,7.67
2019-05-19T23:13:53.967Z,5.57
2019-05-19T23:16:58.695Z,5.47
2019-05-19T23:20:03.813Z,5.93
2019-05-19T23:23:08.679Z,6.83
2019-05-19T23:26:13.442Z,5.30
2019-05-19T23:29:18.429Z,5.80
2019-05-19T23:32:23.535Z,6.03
2019-05-19T23:35:28.546Z,6.10
2019-05-19T23:38:34.342Z,7.70
2019-05-19T23:41:39.084Z,7.87
2019-05-19T23:44:46.796Z,6.03
2019-05-19T23:47:51.539Z,8.03
2019-05-19T23:50:56.271Z,6.70
2019-05-19T23:54:02.581Z,5.77
2019-05-19T23:57:07.316Z,5.87
